Eleni K III — 9HOA8 — position and weather

sailwx.info

Track history (hours):
 
Tides and Currents Weather Stations Pressure Air Temp Water Temp Dewpoint Dewpoint Depression Visibility Wind Speed Wind Dir Waves Ship Positions

Eleni K III

Last reported at 2018-Jan-01 08:30 UTC. Time now 2018-Jul-22 14:01 UTC.
Position N 39°54' E 026°08'.
Warning: this ship's position is months out of date.

Length 81 m; draft 6.2 m.

Type: Cargo ship. MMSI: 256203000.

Date/timePositionNaut miles runAvg speedWind from/ knotsBaromVisibWave heightAir tempDewpointWater temp
2018-Jan-01 08:30N 39°54' E 026°08'  
2017-Dec-29 12:48N 39°53' E 026°09'0 0.0
2017-Dec-29 12:30N 39°53' E 026°09'0 0.0
2017-Dec-29 11:57N 39°53' E 026°09'0 0.0
2017-Dec-29 11:30N 39°53' E 026°09'0 0.0
2017-Dec-29 11:00N 39°53' E 026°09'0 0.0
2017-Dec-29 10:30N 39°53' E 026°09'0 0.0
2017-Dec-29 10:00N 39°53' E 026°09'0 0.0
2017-Dec-29 09:30N 39°53' E 026°09'0 0.0
2017-Dec-29 08:57N 39°53' E 026°09'135 6.0
2017-Dec-28 10:33N 37°38' E 025°55'1 9.2
2017-Dec-28 10:30N 37°38' E 025°55'5 9.3
2017-Dec-28 10:00N 37°33' E 025°56'5 9.5
2017-Dec-28 09:30N 37°28' E 025°57'5 9.3
2017-Dec-28 09:00N 37°24' E 025°58'5 9.4
2017-Dec-28 08:30N 37°19' E 025°59'5 9.9
2017-Dec-28 08:00N 37°14' E 026°01'5 9.8
2017-Dec-28 07:30N 37°10' E 026°02'5 9.3
2017-Dec-28 07:00N 37°05' E 026°03'5 9.2
2017-Dec-28 06:30N 37°01' E 026°05'6 8.9
2017-Dec-28 05:47N 36°54' E 026°06'3 9.1
2017-Dec-28 05:30N 36°52' E 026°06'5 9.1
2017-Dec-28 05:00N 36°47' E 026°07'5 9.1
2017-Dec-28 04:30N 36°43' E 026°07'4 8.9
2017-Dec-28 04:00N 36°38' E 026°07'4 8.9
2017-Dec-28 03:30N 36°34' E 026°07'4 8.9
2017-Dec-28 03:00N 36°29' E 026°07'5 9.0
2017-Dec-28 02:30N 36°25' E 026°07'5 9.2
2017-Dec-28 02:00N 36°20' E 026°07'4 8.9
2017-Dec-28 01:30N 36°16' E 026°07'4 8.6
2017-Dec-28 01:00N 36°12' E 026°07'4 8.7
2017-Dec-28 00:30N 36°07' E 026°07'5 8.9
2017-Dec-28 00:00N 36°03' E 026°07'4 9.0
2017-Dec-27 23:30N 35°58' E 026°07'4 8.9
2017-Dec-27 23:00N 35°54' E 026°07'5 9.1
2017-Dec-27 22:30N 35°49' E 026°07'4 8.9
2017-Dec-27 22:00N 35°45' E 026°07'4 8.8
2017-Dec-27 21:30N 35°40' E 026°08'  
Track history (hours):
 
Tides and Currents Weather Stations Pressure Air Temp Water Temp Dewpoint Dewpoint Depression Visibility Wind Speed Wind Dir Waves Ship Positions

Eleni K III

Last reported at 2018-Jan-01 08:30 UTC. Time now 2018-Jul-22 14:01 UTC.
Position N 39°54' E 026°08'.
Warning: this ship's position is months out of date.

Length 81 m; draft 6.2 m.

Type: Cargo ship. MMSI: 256203000.

Date/timePositionNaut miles runAvg speedWind from/ knotsBaromVisibWave heightAir tempDewpointWater temp
2018-Jan-01 08:30N 39°54' E 026°08'  
2017-Dec-29 12:48N 39°53' E 026°09'0 0.0
2017-Dec-29 12:30N 39°53' E 026°09'0 0.0
2017-Dec-29 11:57N 39°53' E 026°09'0 0.0
2017-Dec-29 11:30N 39°53' E 026°09'0 0.0
2017-Dec-29 11:00N 39°53' E 026°09'0 0.0
2017-Dec-29 10:30N 39°53' E 026°09'0 0.0
2017-Dec-29 10:00N 39°53' E 026°09'0 0.0
2017-Dec-29 09:30N 39°53' E 026°09'0 0.0
2017-Dec-29 08:57N 39°53' E 026°09'135 6.0
2017-Dec-28 10:33N 37°38' E 025°55'1 9.2
2017-Dec-28 10:30N 37°38' E 025°55'5 9.3
2017-Dec-28 10:00N 37°33' E 025°56'5 9.5
2017-Dec-28 09:30N 37°28' E 025°57'5 9.3
2017-Dec-28 09:00N 37°24' E 025°58'5 9.4
2017-Dec-28 08:30N 37°19' E 025°59'5 9.9
2017-Dec-28 08:00N 37°14' E 026°01'5 9.8
2017-Dec-28 07:30N 37°10' E 026°02'5 9.3
2017-Dec-28 07:00N 37°05' E 026°03'5 9.2
2017-Dec-28 06:30N 37°01' E 026°05'6 8.9
2017-Dec-28 05:47N 36°54' E 026°06'3 9.1
2017-Dec-28 05:30N 36°52' E 026°06'5 9.1
2017-Dec-28 05:00N 36°47' E 026°07'5 9.1
2017-Dec-28 04:30N 36°43' E 026°07'4 8.9
2017-Dec-28 04:00N 36°38' E 026°07'4 8.9
2017-Dec-28 03:30N 36°34' E 026°07'4 8.9
2017-Dec-28 03:00N 36°29' E 026°07'5 9.0
2017-Dec-28 02:30N 36°25' E 026°07'5 9.2
2017-Dec-28 02:00N 36°20' E 026°07'4 8.9
2017-Dec-28 01:30N 36°16' E 026°07'4 8.6
2017-Dec-28 01:00N 36°12' E 026°07'4 8.7
2017-Dec-28 00:30N 36°07' E 026°07'5 8.9
2017-Dec-28 00:00N 36°03' E 026°07'4 9.0
2017-Dec-27 23:30N 35°58' E 026°07'4 8.9
2017-Dec-27 23:00N 35°54' E 026°07'5 9.1
2017-Dec-27 22:30N 35°49' E 026°07'4 8.9
2017-Dec-27 22:00N 35°45' E 026°07'4 8.8
2017-Dec-27 21:30N 35°40' E 026°08'  

Dump ship's entire track history